Time;durP1;ratioP1;P1;durP2;ratioP2;P2;SDS_P1;SDS_P2;PMS_P1;PMS_P2;Temp;Humidity;BMP_temperature;BMP_pressure;BME280_temperature;BME280_humidity;BME280_pressure;Samples;Min_cycle;Max_cycle;Signal;HPM_P1;HPM_P2
2021/06/09 00:01:14;;;;;;;17.02;9.90;;;14.30;99.90;;;;;;5085126;28;20192;-70
2021/06/09 00:03:40;;;;;;;16.20;9.70;;;14.20;99.90;;;;;;5086876;28;20235;-68
2021/06/09 00:06:05;;;;;;;16.88;9.40;;;14.20;99.90;;;;;;5085499;28;20272;-72
2021/06/09 00:08:31;;;;;;;18.15;10.38;;;14.10;99.90;;;;;;5086116;28;20319;-70
2021/06/09 00:10:57;;;;;;;17.35;10.80;;;14.10;99.90;;;;;;5085706;28;21132;-71
2021/06/09 00:13:27;;;;;;;19.92;11.68;;;14.00;99.90;;;;;;5084641;28;20196;-70
2021/06/09 00:15:55;;;;;;;20.85;10.52;;;14.00;99.90;;;;;;5081275;28;20196;-69
2021/06/09 00:18:21;;;;;;;16.17;9.80;;;13.90;99.90;;;;;;5085631;28;20283;-70
2021/06/09 00:20:47;;;;;;;13.80;9.38;;;13.90;99.90;;;;;;5081342;28;20294;-70
2021/06/09 00:23:16;;;;;;;15.80;9.75;;;13.80;99.90;;;;;;5080418;28;20200;-70
2021/06/09 00:25:47;;;;;;;20.15;9.85;;;13.80;99.90;;;;;;5081677;28;20288;-71
2021/06/09 00:28:13;;;;;;;22.25;10.57;;;13.90;99.90;;;;;;5083140;28;20550;-70
2021/06/09 00:30:39;;;;;;;12.40;9.20;;;13.80;99.90;;;;;;5080736;28;20207;-70
2021/06/09 00:33:05;;;;;;;15.10;9.45;;;13.80;99.90;;;;;;5081918;28;20203;-70
2021/06/09 00:35:31;;;;;;;16.60;9.52;;;13.80;99.90;;;;;;5080976;28;20224;-68
2021/06/09 00:37:57;;;;;;;16.58;9.00;;;13.90;99.90;;;;;;5083615;28;20192;-69
2021/06/09 00:40:24;;;;;;;17.05;9.15;;;13.90;99.90;;;;;;5081124;28;20207;-71
2021/06/09 00:43:09;;;;;;;14.27;8.75;;;13.80;99.90;;;;;;5081538;28;20209;-70
2021/06/09 00:45:52;;;;;;;18.25;9.57;;;13.80;99.90;;;;;;5079059;28;20761;-70
2021/06/09 00:48:19;;;;;;;12.57;8.68;;;13.80;99.90;;;;;;5079067;28;20301;-71
2021/06/09 00:50:45;;;;;;;17.83;8.55;;;13.80;99.90;;;;;;5080045;28;20191;-70
2021/06/09 00:53:28;;;;;;;12.73;8.27;;;13.90;99.90;;;;;;5080510;28;20543;-72
2021/06/09 00:55:56;;;;;;;15.07;9.18;;;13.90;99.90;;;;;;5081598;28;20203;-72
2021/06/09 00:58:22;;;;;;;12.15;8.75;;;13.90;99.90;;;;;;5081417;28;20241;-70
2021/06/09 01:00:48;;;;;;;25.15;10.30;;;13.90;99.90;;;;;;5083583;28;20192;-72
2021/06/09 01:05:47;;;;;;;16.23;8.52;;;13.80;99.90;;;;;;5035264;28;20229;-70
2021/06/09 01:08:16;;;;;;;15.63;9.23;;;13.80;99.90;;;;;;5043386;28;20244;-70
2021/06/09 01:10:45;;;;;;;13.20;8.20;;;13.80;99.90;;;;;;5042131;28;20204;-70
2021/06/09 01:13:12;;;;;;;15.00;8.98;;;13.80;99.90;;;;;;5042045;28;20221;-71
2021/06/09 01:15:38;;;;;;;15.27;9.15;;;13.80;99.90;;;;;;5040571;28;20208;-70
2021/06/09 01:18:05;;;;;;;13.35;8.52;;;13.80;99.90;;;;;;5042823;28;20185;-71
2021/06/09 01:20:30;;;;;;;13.93;8.27;;;13.80;99.90;;;;;;5043619;28;20201;-71
2021/06/09 01:22:56;;;;;;;20.27;9.32;;;13.70;99.90;;;;;;5043513;28;20209;-71
2021/06/09 01:25:23;;;;;;;11.63;8.00;;;13.70;99.90;;;;;;5042446;28;20194;-70
2021/06/09 01:27:50;;;;;;;15.48;7.82;;;13.70;99.90;;;;;;5043317;28;20202;-70
2021/06/09 01:30:17;;;;;;;12.32;7.80;;;13.80;99.90;;;;;;5042259;28;20208;-70
2021/06/09 01:32:43;;;;;;;11.85;7.70;;;13.80;99.90;;;;;;5039322;28;20662;-71
2021/06/09 01:35:10;;;;;;;12.20;8.27;;;13.80;99.90;;;;;;5023416;28;20194;-71
2021/06/09 01:37:36;;;;;;;12.65;7.80;;;13.90;99.90;;;;;;5043418;28;20201;-71
2021/06/09 01:40:04;;;;;;;13.55;9.00;;;13.80;99.90;;;;;;5043749;28;20197;-71
2021/06/09 01:42:31;;;;;;;15.95;9.30;;;13.80;99.90;;;;;;5042419;28;20233;-71
2021/06/09 01:44:57;;;;;;;11.70;8.40;;;13.80;99.90;;;;;;5043040;28;20201;-71
2021/06/09 01:47:24;;;;;;;12.63;8.60;;;13.80;99.90;;;;;;5023949;28;20317;-71
2021/06/09 01:49:50;;;;;;;17.08;10.85;;;13.80;99.90;;;;;;5043086;28;20244;-71
2021/06/09 01:52:20;;;;;;;16.13;10.95;;;13.80;99.90;;;;;;5043667;28;20201;-70
2021/06/09 01:54:47;;;;;;;15.13;10.15;;;13.80;99.90;;;;;;5042445;28;20194;-70
2021/06/09 01:57:15;;;;;;;14.00;9.07;;;13.70;99.90;;;;;;5043475;28;20280;-70
2021/06/09 01:59:42;;;;;;;16.70;9.20;;;13.70;99.90;;;;;;5043576;28;20288;-70
2021/06/09 02:02:09;;;;;;;16.33;9.13;;;13.70;99.90;;;;;;5039398;28;20197;-71
2021/06/09 02:04:35;;;;;;;14.32;9.50;;;13.70;99.90;;;;;;5046458;28;20232;-71
2021/06/09 02:07:01;;;;;;;14.65;8.80;;;13.70;99.90;;;;;;5056465;28;20197;-71
2021/06/09 02:09:27;;;;;;;18.00;11.50;;;13.70;99.90;;;;;;5057506;28;20259;-71
2021/06/09 02:11:52;;;;;;;16.80;10.60;;;13.80;99.90;;;;;;5055989;28;20201;-71
2021/06/09 02:14:19;;;;;;;13.82;8.55;;;13.80;99.90;;;;;;5056174;28;20228;-71
2021/06/09 02:16:47;;;;;;;16.33;8.80;;;13.70;99.90;;;;;;5060495;28;20205;-70
2021/06/09 02:19:14;;;;;;;18.48;11.13;;;13.70;99.90;;;;;;5059201;28;20283;-71
2021/06/09 02:21:41;;;;;;;19.25;11.43;;;13.80;99.90;;;;;;5043153;28;20247;-70
2021/06/09 02:24:08;;;;;;;16.35;10.13;;;13.70;99.90;;;;;;5058306;28;20200;-71
2021/06/09 02:26:35;;;;;;;16.85;9.93;;;13.70;99.90;;;;;;5051725;28;20638;-70
2021/06/09 02:29:03;;;;;;;15.75;9.60;;;13.70;99.90;;;;;;5058419;28;20199;-70
2021/06/09 02:31:29;;;;;;;16.67;10.68;;;13.80;99.90;;;;;;5056487;28;20181;-70
2021/06/09 02:33:56;;;;;;;15.05;10.18;;;13.80;99.90;;;;;;5058324;28;20196;-70
2021/06/09 02:36:39;;;;;;;15.52;9.95;;;13.80;99.90;;;;;;5056642;28;20197;-70
2021/06/09 02:39:05;;;;;;;16.40;10.13;;;13.80;99.90;;;;;;5058774;28;20631;-70
2021/06/09 02:41:30;;;;;;;17.65;10.45;;;13.80;99.90;;;;;;5057299;28;20277;-70
2021/06/09 02:43:58;;;;;;;19.60;10.02;;;13.80;99.90;;;;;;5057653;28;20212;-70
2021/06/09 02:46:31;;;;;;;14.15;9.52;;;13.80;99.90;;;;;;5044602;28;20296;-70
2021/06/09 02:49:00;;;;;;;14.68;9.70;;;13.80;99.90;;;;;;5061080;28;20197;-70
2021/06/09 02:52:08;;;;;;;16.15;9.73;;;13.80;99.90;;;;;;5060670;28;20304;-71
2021/06/09 02:55:01;;;;;;;15.15;10.50;;;13.90;99.90;;;;;;5017081;28;20202;-70
2021/06/09 02:57:56;;;;;;;15.63;9.77;;;13.90;99.90;;;;;;5003832;28;20879;-70
2021/06/09 03:00:32;;;;;;;15.45;9.95;;;13.90;99.90;;;;;;5052439;28;20212;-70
2021/06/09 03:03:08;;;;;;;18.88;11.68;;;13.90;99.90;;;;;;5057973;28;20838;-70
2021/06/09 03:05:42;;;;;;;16.00;10.57;;;13.90;99.90;;;;;;5044239;28;20581;-70
2021/06/09 03:08:36;;;;;;;17.23;10.40;;;13.90;99.90;;;;;;5058862;28;20646;-71
2021/06/09 03:11:28;;;;;;;20.77;10.20;;;13.90;99.90;;;;;;5034620;28;20288;-70
2021/06/09 03:16:56;;;;;;;17.73;10.63;;;14.00;99.90;;;;;;5056703;28;20649;-69
2021/06/09 03:19:39;;;;;;;18.88;11.98;;;14.00;99.90;;;;;;5056832;28;20733;-68
2021/06/09 03:22:30;;;;;;;17.27;9.65;;;14.00;99.90;;;;;;5039371;28;20312;-69
2021/06/09 03:24:57;;;;;;;14.45;9.80;;;13.90;99.90;;;;;;5056111;28;20220;-70
2021/06/09 03:27:41;;;;;;;19.15;11.45;;;13.90;99.90;;;;;;5056926;28;20197;-70
2021/06/09 03:30:09;;;;;;;16.55;10.30;;;14.00;99.90;;;;;;5059060;28;20687;-70
2021/06/09 03:32:38;;;;;;;14.50;9.77;;;13.90;99.90;;;;;;5037103;28;20202;-70
2021/06/09 03:35:11;;;;;;;17.85;9.80;;;13.90;99.90;;;;;;5059413;28;20322;-70
2021/06/09 03:37:42;;;;;;;19.55;10.45;;;13.90;99.90;;;;;;5054151;28;20219;-70
2021/06/09 03:40:14;;;;;;;21.58;11.07;;;13.90;99.90;;;;;;5056621;28;20322;-70
2021/06/09 03:42:46;;;;;;;21.52;11.52;;;13.90;99.90;;;;;;5054072;28;20220;-70
2021/06/09 03:45:15;;;;;;;16.92;11.18;;;13.90;99.90;;;;;;5052106;28;20450;-69
2021/06/09 03:47:42;;;;;;;14.35;10.18;;;13.90;99.90;;;;;;5051172;28;20198;-70
2021/06/09 03:50:09;;;;;;;14.60;9.85;;;13.90;99.90;;;;;;5055249;28;20204;-70
2021/06/09 03:52:37;;;;;;;22.90;11.13;;;14.00;99.90;;;;;;5055903;28;20198;-70
2021/06/09 03:55:06;;;;;;;19.45;12.65;;;14.10;99.90;;;;;;5055358;28;20594;-70
2021/06/09 03:57:34;;;;;;;16.50;10.70;;;14.20;99.90;;;;;;5057188;28;20189;-71
2021/06/09 04:00:00;;;;;;;16.90;11.50;;;14.20;99.90;;;;;;5060659;28;20785;-70
2021/06/09 04:02:28;;;;;;;21.85;12.90;;;14.30;99.90;;;;;;5057557;28;20194;-71
2021/06/09 04:04:57;;;;;;;19.08;12.82;;;14.40;99.90;;;;;;5061379;28;20208;-70
2021/06/09 04:07:24;;;;;;;23.25;13.15;;;14.50;99.90;;;;;;5060933;28;20197;-70
2021/06/09 04:09:52;;;;;;;22.88;13.07;;;14.60;99.90;;;;;;5060476;28;20234;-71
2021/06/09 04:12:20;;;;;;;30.90;14.73;;;14.70;99.90;;;;;;5044224;28;20837;-70
2021/06/09 04:14:48;;;;;;;52.17;15.55;;;14.90;99.90;;;;;;5053958;28;20190;-70
2021/06/09 04:17:20;;;;;;;113.88;16.05;;;14.90;99.90;;;;;;5064139;28;20275;-70
2021/06/09 04:19:47;;;;;;;76.95;16.27;;;15.00;99.90;;;;;;5054861;28;20291;-70
2021/06/09 04:22:13;;;;;;;27.50;15.00;;;15.10;99.90;;;;;;5062048;28;20200;-67
2021/06/09 04:24:40;;;;;;;29.90;14.52;;;15.00;99.90;;;;;;5060333;28;20194;-71
2021/06/09 04:27:09;;;;;;;44.03;14.63;;;15.10;99.90;;;;;;5063660;28;20185;-70
2021/06/09 04:29:36;;;;;;;73.60;16.65;;;15.20;99.90;;;;;;5062467;28;20276;-71
2021/06/09 04:32:07;;;;;;;63.33;15.73;;;15.20;99.90;;;;;;5059034;28;20651;-70
2021/06/09 04:34:46;;;;;;;32.33;15.38;;;15.20;99.90;;;;;;5062814;28;20180;-70
2021/06/09 04:37:13;;;;;;;46.53;16.63;;;15.20;99.90;;;;;;5063487;28;20220;-70
2021/06/09 04:39:40;;;;;;;24.50;13.93;;;15.40;99.90;;;;;;5062693;28;20216;-71
2021/06/09 04:42:07;;;;;;;37.83;17.05;;;15.40;99.90;;;;;;5063586;28;20189;-70
2021/06/09 04:44:34;;;;;;;54.20;16.70;;;15.60;99.90;;;;;;5043111;28;20432;-71
2021/06/09 04:47:01;;;;;;;33.47;15.43;;;15.60;99.90;;;;;;5060909;28;20192;-71
2021/06/09 04:49:32;;;;;;;47.50;15.85;;;15.70;99.90;;;;;;5063857;28;20271;-71
2021/06/09 04:51:59;;;;;;;32.50;14.68;;;15.80;99.90;;;;;;5057118;28;20300;-70
2021/06/09 04:54:26;;;;;;;36.17;15.52;;;15.90;99.90;;;;;;5057504;28;20201;-71
2021/06/09 04:56:51;;;;;;;26.13;14.95;;;15.90;99.90;;;;;;5064327;28;20209;-70
2021/06/09 04:59:17;;;;;;;35.30;16.77;;;15.90;99.90;;;;;;5059444;28;20228;-71
2021/06/09 05:01:43;;;;;;;44.53;17.77;;;15.90;99.90;;;;;;5059426;28;20635;-70
2021/06/09 05:04:09;;;;;;;36.28;16.20;;;16.00;99.90;;;;;;5042850;28;20224;-71
2021/06/09 05:06:35;;;;;;;38.28;16.50;;;16.00;99.90;;;;;;5062716;28;20197;-70
2021/06/09 05:09:03;;;;;;;57.00;17.25;;;16.00;99.90;;;;;;5058894;28;20197;-70
2021/06/09 05:11:39;;;;;;;59.92;17.73;;;16.00;99.90;;;;;;5040960;28;20193;-70
2021/06/09 05:14:09;;;;;;;34.40;16.77;;;15.90;99.90;;;;;;5059081;28;20194;-70
2021/06/09 05:16:37;;;;;;;57.17;18.65;;;15.80;99.90;;;;;;5063529;28;20200;-71
2021/06/09 05:19:04;;;;;;;59.65;18.23;;;15.70;99.90;;;;;;5059650;28;20668;-71
2021/06/09 05:21:33;;;;;;;91.28;20.63;;;15.70;99.90;;;;;;5039286;28;20193;-70
2021/06/09 05:24:01;;;;;;;31.67;16.85;;;15.60;99.90;;;;;;5061247;28;20213;-70
2021/06/09 05:26:29;;;;;;;33.47;17.60;;;15.60;99.90;;;;;;5044147;28;20197;-70
2021/06/09 05:28:59;;;;;;;28.02;16.45;;;15.60;99.90;;;;;;5056165;28;20243;-71
2021/06/09 05:31:26;;;;;;;28.10;16.52;;;15.70;99.90;;;;;;5035460;28;20197;-70
2021/06/09 05:33:54;;;;;;;30.63;16.63;;;15.70;99.90;;;;;;5062765;28;20781;-71
2021/06/09 05:36:21;;;;;;;29.13;15.82;;;15.80;99.90;;;;;;5060190;28;20200;-70
2021/06/09 05:38:47;;;;;;;29.58;16.90;;;15.80;99.90;;;;;;5057414;28;20226;-70
2021/06/09 05:41:13;;;;;;;31.48;16.98;;;15.90;99.90;;;;;;5048392;28;20231;-70
2021/06/09 05:43:40;;;;;;;33.00;16.65;;;15.90;99.90;;;;;;5058754;28;20213;-70
2021/06/09 05:46:10;;;;;;;29.85;17.45;;;16.00;99.90;;;;;;5059285;28;20198;-70
2021/06/09 05:48:40;;;;;;;27.92;15.73;;;16.10;99.90;;;;;;5064682;28;20225;-71
2021/06/09 05:51:09;;;;;;;27.08;16.10;;;16.30;99.90;;;;;;5056989;28;20304;-70
2021/06/09 05:53:34;;;;;;;24.83;14.80;;;16.40;99.90;;;;;;5054140;28;20200;-70
2021/06/09 05:56:00;;;;;;;28.55;15.45;;;16.60;99.90;;;;;;5058299;28;20203;-71
2021/06/09 05:58:26;;;;;;;27.23;15.75;;;16.60;99.90;;;;;;5060359;28;20655;-71
2021/06/09 06:00:58;;;;;;;25.23;14.85;;;16.70;99.90;;;;;;5057876;28;20266;-71
2021/06/09 06:03:25;;;;;;;26.77;15.18;;;16.80;99.90;;;;;;5066192;28;20717;-70
2021/06/09 06:06:00;;;;;;;25.45;15.68;;;16.80;99.90;;;;;;5041962;28;20626;-70
2021/06/09 06:08:27;;;;;;;22.00;14.30;;;16.70;99.90;;;;;;5042113;28;20212;-70
2021/06/09 06:10:53;;;;;;;30.13;14.63;;;16.60;99.90;;;;;;5038510;28;20303;-70
2021/06/09 06:13:24;;;;;;;27.58;14.68;;;16.60;99.90;;;;;;5042185;28;20231;-70
2021/06/09 06:15:54;;;;;;;25.85;15.52;;;16.50;99.90;;;;;;5033977;28;20999;-70
2021/06/09 06:18:41;;;;;;;23.27;12.98;;;16.40;99.90;;;;;;5041227;28;20194;-70
2021/06/09 06:21:12;;;;;;;22.30;13.38;;;16.30;99.90;;;;;;5023028;28;20203;-70
2021/06/09 06:23:39;;;;;;;20.60;13.10;;;16.40;99.90;;;;;;5027506;28;20243;-71
2021/06/09 06:26:05;;;;;;;20.40;13.82;;;16.50;99.90;;;;;;5038648;28;20200;-71
2021/06/09 06:28:32;;;;;;;25.15;13.38;;;16.50;99.90;;;;;;5019803;28;20244;-71
2021/06/09 06:30:59;;;;;;;33.08;13.70;;;16.60;99.90;;;;;;5037202;28;20196;-71
2021/06/09 06:33:26;;;;;;;21.40;13.77;;;16.60;99.90;;;;;;5045100;28;20659;-71
2021/06/09 06:35:55;;;;;;;21.48;13.60;;;16.70;99.90;;;;;;5039085;28;20248;-71
2021/06/09 06:38:22;;;;;;;24.58;13.60;;;16.70;99.90;;;;;;5037009;28;20267;-71
2021/06/09 06:40:49;;;;;;;21.58;12.85;;;16.80;99.90;;;;;;5034167;28;20190;-71
2021/06/09 06:43:15;;;;;;;25.13;13.38;;;16.80;99.90;;;;;;5016002;28;20205;-71
2021/06/09 06:45:42;;;;;;;23.83;13.25;;;16.90;99.90;;;;;;5016254;28;20279;-71
2021/06/09 06:48:09;;;;;;;19.67;12.82;;;17.00;99.90;;;;;;5039124;28;20221;-71
2021/06/09 06:50:37;;;;;;;20.63;13.02;;;17.20;99.90;;;;;;5025621;28;20198;-71
2021/06/09 06:53:06;;;;;;;19.67;13.27;;;17.30;99.90;;;;;;5039624;28;20198;-71
2021/06/09 06:55:32;;;;;;;25.63;12.02;;;17.50;99.90;;;;;;5019284;28;20206;-71
2021/06/09 06:57:58;;;;;;;22.02;12.30;;;17.70;99.90;;;;;;5038754;28;20214;-71
2021/06/09 07:00:25;;;;;;;19.17;12.75;;;17.80;99.90;;;;;;5035564;28;20193;-71
2021/06/09 07:02:54;;;;;;;19.73;12.30;;;17.80;99.90;;;;;;5039281;28;20220;-71
2021/06/09 07:05:23;;;;;;;21.73;12.18;;;17.80;99.90;;;;;;5053782;28;20227;-71
2021/06/09 07:07:50;;;;;;;17.95;11.73;;;17.80;99.90;;;;;;5058681;28;20216;-71
2021/06/09 07:10:17;;;;;;;19.08;11.73;;;17.80;99.90;;;;;;5037133;28;20189;-71
2021/06/09 07:12:45;;;;;;;15.48;10.43;;;17.90;99.90;;;;;;5053417;28;20297;-71
2021/06/09 07:15:20;;;;;;;17.08;10.18;;;18.00;99.90;;;;;;5053100;28;20609;-71
2021/06/09 07:17:52;;;;;;;19.92;10.13;;;18.00;99.90;;;;;;5057784;28;20658;-71
2021/06/09 07:20:23;;;;;;;17.10;9.60;;;18.00;99.90;;;;;;5050846;28;20193;-71
2021/06/09 07:22:50;;;;;;;17.33;10.50;;;18.00;99.90;;;;;;5054371;28;20209;-71
2021/06/09 07:25:17;;;;;;;17.33;9.60;;;18.00;99.90;;;;;;5055919;28;20200;-71
2021/06/09 07:27:47;;;;;;;20.85;10.38;;;17.90;99.90;;;;;;5055004;28;20197;-71
2021/06/09 07:30:16;;;;;;;19.48;10.30;;;17.90;99.90;;;;;;5053322;28;20193;-71
2021/06/09 07:32:45;;;;;;;16.75;10.63;;;18.00;99.90;;;;;;5043939;28;20200;-71
2021/06/09 07:35:12;;;;;;;16.77;10.48;;;17.90;99.90;;;;;;5062596;28;20686;-71
2021/06/09 07:37:43;;;;;;;21.45;10.20;;;17.90;99.90;;;;;;5064432;28;20206;-71
2021/06/09 07:40:14;;;;;;;17.90;10.30;;;17.90;99.90;;;;;;5060477;28;20195;-71
2021/06/09 07:42:49;;;;;;;19.65;10.50;;;17.90;99.90;;;;;;5059760;28;20209;-71
2021/06/09 07:45:18;;;;;;;16.48;10.60;;;17.90;99.90;;;;;;5062883;28;20193;-71
2021/06/09 07:47:47;;;;;;;16.08;9.43;;;17.90;99.90;;;;;;5058732;28;20193;-71
2021/06/09 07:50:14;;;;;;;19.98;9.75;;;18.00;99.90;;;;;;5058256;28;20325;-71
2021/06/09 07:52:44;;;;;;;24.25;9.60;;;18.10;99.90;;;;;;5062447;28;20274;-72
2021/06/09 07:55:11;;;;;;;14.15;9.48;;;18.00;99.90;;;;;;5058049;28;20200;-72
2021/06/09 07:57:40;;;;;;;24.48;11.93;;;18.00;99.90;;;;;;5065657;28;20280;-72
2021/06/09 08:00:11;;;;;;;27.83;12.85;;;18.10;99.90;;;;;;5062322;28;20197;-71
2021/06/09 08:02:39;;;;;;;25.92;13.82;;;18.00;99.90;;;;;;5062484;28;20846;-71
2021/06/09 08:05:05;;;;;;;36.67;17.35;;;18.00;99.90;;;;;;5033901;28;20901;-72
2021/06/09 08:07:31;;;;;;;31.67;17.58;;;17.90;99.90;;;;;;5039144;28;20837;-71
2021/06/09 08:09:57;;;;;;;32.53;16.85;;;18.10;99.90;;;;;;5043802;28;20198;-72
2021/06/09 08:12:23;;;;;;;34.60;17.95;;;18.30;99.90;;;;;;5040221;28;20194;-71
2021/06/09 08:14:49;;;;;;;32.80;17.13;;;18.50;99.90;;;;;;5043478;28;20194;-72
2021/06/09 08:17:15;;;;;;;31.02;16.45;;;18.70;99.90;;;;;;5042635;28;20200;-72
2021/06/09 08:19:44;;;;;;;33.25;18.23;;;19.10;99.90;;;;;;5025988;28;20194;-72
2021/06/09 08:22:10;;;;;;;29.83;16.33;;;19.30;99.90;;;;;;5021430;28;20225;-72
2021/06/09 08:24:35;;;;;;;30.35;17.58;;;19.20;99.90;;;;;;5048204;28;20288;-72
2021/06/09 08:27:03;;;;;;;24.55;15.05;;;18.90;99.90;;;;;;5042389;28;20206;-71
2021/06/09 08:29:30;;;;;;;23.90;13.65;;;18.90;99.90;;;;;;5042512;28;20197;-72
2021/06/09 08:31:55;;;;;;;23.27;13.20;;;19.10;99.90;;;;;;5042388;28;20286;-72
2021/06/09 08:34:21;;;;;;;27.15;15.43;;;19.10;99.90;;;;;;5042362;28;20285;-73
2021/06/09 08:36:47;;;;;;;30.33;16.13;;;19.10;99.90;;;;;;5046945;28;20197;-72
2021/06/09 08:39:13;;;;;;;25.95;15.77;;;19.20;99.90;;;;;;5028151;28;20629;-73
2021/06/09 08:41:40;;;;;;;24.05;15.18;;;19.20;99.90;;;;;;5040723;28;20648;-72
2021/06/09 08:44:07;;;;;;;26.67;15.70;;;19.30;99.90;;;;;;5043034;28;20228;-72
2021/06/09 08:46:34;;;;;;;26.60;16.08;;;19.50;99.90;;;;;;5041997;28;20729;-72
2021/06/09 08:49:03;;;;;;;38.50;14.88;;;19.70;99.90;;;;;;5037491;28;20199;-72
2021/06/09 08:51:32;;;;;;;28.40;14.93;;;19.80;99.90;;;;;;5020462;28;20615;-73
2021/06/09 08:53:58;;;;;;;25.55;12.90;;;20.00;99.90;;;;;;5047335;28;20209;-73
2021/06/09 08:56:24;;;;;;;24.40;12.55;;;19.80;99.90;;;;;;5025976;28;20241;-73
2021/06/09 08:58:51;;;;;;;24.38;12.00;;;19.70;99.90;;;;;;5027724;28;20241;-73
2021/06/09 09:01:18;;;;;;;19.02;12.38;;;19.90;99.90;;;;;;5038986;28;20258;-73
2021/06/09 09:03:47;;;;;;;20.42;11.43;;;20.10;99.90;;;;;;5024668;28;20209;-73
2021/06/09 09:06:15;;;;;;;20.88;12.25;;;20.00;99.90;;;;;;5036906;28;20569;-73
2021/06/09 09:08:41;;;;;;;21.55;11.95;;;20.10;99.90;;;;;;5020991;28;20201;-73
2021/06/09 09:11:07;;;;;;;16.67;10.88;;;20.00;99.90;;;;;;5041540;28;20194;-73
2021/06/09 09:13:34;;;;;;;17.42;10.95;;;20.20;99.90;;;;;;5040036;28;20208;-73
2021/06/09 09:16:00;;;;;;;17.38;9.55;;;20.40;99.90;;;;;;5036897;28;20249;-73
2021/06/09 09:19:02;;;;;;;21.08;9.85;;;20.50;99.90;;;;;;5024355;28;20201;-72
2021/06/09 09:21:43;;;;;;;13.43;9.07;;;20.80;99.90;;;;;;5002798;28;20277;-73
2021/06/09 09:24:12;;;;;;;19.95;9.25;;;20.30;99.90;;;;;;5035058;28;20228;-72
2021/06/09 09:26:39;;;;;;;14.63;8.65;;;20.30;99.90;;;;;;5038278;28;20251;-73
2021/06/09 09:29:21;;;;;;;16.33;8.38;;;20.30;99.90;;;;;;5040121;28;20249;-73
2021/06/09 09:32:16;;;;;;;14.13;9.18;;;20.50;99.90;;;;;;5039091;28;20193;-72
2021/06/09 09:34:43;;;;;;;13.45;8.13;;;20.20;99.90;;;;;;5019422;28;20542;-72
2021/06/09 09:37:11;;;;;;;17.83;8.32;;;20.30;99.90;;;;;;5030363;28;20267;-73
2021/06/09 09:39:40;;;;;;;17.00;8.77;;;21.00;99.90;;;;;;5022337;28;20209;-73
2021/06/09 09:42:30;;;;;;;13.48;8.77;;;21.70;99.90;;;;;;5035769;28;20209;-72
2021/06/09 09:45:22;;;;;;;12.63;8.00;;;22.50;99.90;;;;;;5031304;28;21014;-73
2021/06/09 09:48:03;;;;;;;15.23;7.88;;;22.80;99.90;;;;;;5039594;28;20196;-73
2021/06/09 09:50:40;;;;;;;16.58;7.90;;;22.60;99.90;;;;;;5039165;28;20295;-73
2021/06/09 09:53:23;;;;;;;13.18;8.13;;;23.10;99.90;;;;;;5030586;28;20272;-73
2021/06/09 09:56:05;;;;;;;15.48;8.35;;;23.40;99.90;;;;;;5011390;28;20289;-74
2021/06/09 09:58:51;;;;;;;15.35;8.10;;;23.60;99.90;;;;;;5037415;28;20774;-73
2021/06/09 10:01:20;;;;;;;12.77;7.95;;;24.00;99.90;;;;;;5017993;28;20200;-73
2021/06/09 10:03:48;;;;;;;12.77;9.13;;;24.30;99.90;;;;;;5019189;28;20216;-73
2021/06/09 10:06:20;;;;;;;14.43;8.70;;;24.60;99.90;;;;;;5033749;28;20205;-73
2021/06/09 10:08:46;;;;;;;18.02;8.80;;;24.70;99.90;;;;;;5034669;28;20194;-74
2021/06/09 10:11:14;;;;;;;18.05;8.75;;;24.50;99.90;;;;;;5033278;28;20194;-73
2021/06/09 10:13:40;;;;;;;13.10;9.15;;;24.30;99.90;;;;;;5033521;28;20535;-73
2021/06/09 10:16:21;;;;;;;12.73;8.75;;;24.30;99.90;;;;;;5028897;28;20226;-73
2021/06/09 10:19:00;;;;;;;14.70;8.30;;;24.20;99.90;;;;;;5029954;28;20758;-74
2021/06/09 10:21:27;;;;;;;14.35;8.35;;;24.70;99.90;;;;;;5025722;28;20205;-74
2021/06/09 10:23:58;;;;;;;13.73;7.68;;;25.10;99.90;;;;;;5014942;28;20356;-74
2021/06/09 10:26:24;;;;;;;10.75;7.55;;;25.50;99.90;;;;;;5016942;28;20205;-74
2021/06/09 10:29:12;;;;;;;17.30;8.00;;;25.60;99.90;;;;;;5031719;28;20251;-73
2021/06/09 10:31:47;;;;;;;14.05;8.18;;;25.40;99.90;;;;;;5031988;28;20197;-74
2021/06/09 10:34:13;;;;;;;12.65;8.02;;;25.30;99.90;;;;;;5019543;28;20484;-74
2021/06/09 10:36:50;;;;;;;13.63;8.02;;;25.20;99.90;;;;;;5018429;28;20966;-74
2021/06/09 10:39:19;;;;;;;12.93;7.10;;;25.80;99.90;;;;;;5034782;28;20602;-74
2021/06/09 10:41:51;;;;;;;14.25;7.93;;;25.90;99.90;;;;;;5017708;28;20288;-74
2021/06/09 10:44:19;;;;;;;12.57;7.40;;;26.50;99.90;;;;;;5017446;28;20291;-74
2021/06/09 10:46:50;;;;;;;11.43;6.90;;;25.70;99.90;;;;;;5027685;28;21021;-74
2021/06/09 10:49:18;;;;;;;12.15;7.25;;;25.90;99.90;;;;;;5017281;28;20192;-74
2021/06/09 10:51:49;;;;;;;13.32;6.53;;;26.20;99.90;;;;;;5038198;28;20193;-74
2021/06/09 10:54:15;;;;;;;12.85;6.50;;;26.20;99.90;;;;;;5032780;28;20225;-74
2021/06/09 10:56:48;;;;;;;11.07;6.38;;;25.50;99.90;;;;;;5034742;28;20206;-74
2021/06/09 10:59:17;;;;;;;10.20;6.78;;;25.70;99.90;;;;;;5031495;28;20193;-74
2021/06/09 11:01:44;;;;;;;10.50;7.03;;;26.10;99.90;;;;;;5031661;28;20221;-74
2021/06/09 11:04:11;;;;;;;11.27;7.25;;;26.20;99.90;;;;;;5032030;28;20259;-74
2021/06/09 11:06:48;;;;;;;13.02;6.70;;;26.50;99.90;;;;;;5034996;28;20204;-74
2021/06/09 11:09:22;;;;;;;11.02;6.22;;;26.80;99.90;;;;;;5041868;28;20188;-74
2021/06/09 11:12:14;;;;;;;12.20;6.97;;;27.00;99.90;;;;;;5024985;28;20222;-74
2021/06/09 11:14:48;;;;;;;13.30;6.75;;;27.20;99.90;;;;;;5036144;28;20211;-74
2021/06/09 11:17:15;;;;;;;7.93;5.85;;;27.30;99.90;;;;;;5018244;28;20783;-74
2021/06/09 11:19:45;;;;;;;12.20;6.63;;;27.40;99.90;;;;;;5041034;28;20315;-74
2021/06/09 11:22:24;;;;;;;8.68;6.22;;;26.80;99.90;;;;;;5025396;28;20269;-74
2021/06/09 11:25:17;;;;;;;15.20;6.22;;;26.90;99.90;;;;;;5038318;28;20211;-74
2021/06/09 11:27:56;;;;;;;11.30;5.93;;;26.80;99.90;;;;;;5038861;28;20229;-73
2021/06/09 11:30:25;;;;;;;11.43;5.63;;;26.90;99.90;;;;;;5041553;28;20262;-71
2021/06/09 11:32:52;;;;;;;12.63;6.00;;;26.90;99.90;;;;;;5021022;28;20225;-74
2021/06/09 11:35:21;;;;;;;11.25;5.93;;;26.90;99.90;;;;;;5042024;28;20196;-74
2021/06/09 11:38:24;;;;;;;10.75;6.00;;;26.40;99.90;;;;;;5041550;28;20189;-75
2021/06/09 11:40:53;;;;;;;11.88;5.63;;;26.30;99.90;;;;;;5040387;28;20211;-74
2021/06/09 11:43:27;;;;;;;9.55;6.10;;;26.50;99.90;;;;;;5040004;28;20209;-74
2021/06/09 11:46:23;;;;;;;16.27;5.93;;;26.20;99.90;;;;;;5037878;28;20201;-74
2021/06/09 11:49:00;;;;;;;11.90;6.47;;;26.10;99.90;;;;;;5012663;28;20714;-74
2021/06/09 11:51:38;;;;;;;11.60;6.18;;;26.50;99.90;;;;;;5035789;28;20274;-72
2021/06/09 11:54:17;;;;;;;15.10;6.30;;;26.90;99.90;;;;;;5031061;28;20266;-74
2021/06/09 11:56:49;;;;;;;12.75;5.50;;;26.90;99.90;;;;;;5038782;28;20246;-74
2021/06/09 11:59:34;;;;;;;13.13;6.05;;;27.00;99.90;;;;;;5020833;28;20261;-74
2021/06/09 12:02:07;;;;;;;11.75;6.03;;;27.50;99.90;;;;;;5023522;28;20203;-75
2021/06/09 12:04:40;;;;;;;14.27;5.90;;;27.90;99.90;;;;;;5027605;28;20312;-74
2021/06/09 12:07:09;;;;;;;11.57;6.20;;;28.10;98.70;;;;;;5040195;28;20201;-74
2021/06/09 12:12:40;;;;;;;11.15;6.70;;;27.50;98.80;;;;;;5031059;28;20738;-74
2021/06/09 12:15:11;;;;;;;11.23;6.28;;;27.70;98.20;;;;;;5038615;28;20186;-74
2021/06/09 12:17:40;;;;;;;11.52;6.07;;;28.00;98.40;;;;;;5035003;28;20204;-74
2021/06/09 12:20:12;;;;;;;10.65;5.97;;;28.20;96.90;;;;;;5039476;28;20205;-74
2021/06/09 12:22:49;;;;;;;10.35;5.95;;;28.10;95.80;;;;;;5036551;28;20281;-74
2021/06/09 12:25:35;;;;;;;9.75;6.35;;;27.70;98.00;;;;;;5038376;28;20279;-74
2021/06/09 12:28:07;;;;;;;8.63;5.80;;;27.00;96.00;;;;;;5037554;28;20296;-74
2021/06/09 12:30:35;;;;;;;10.73;5.88;;;27.10;98.70;;;;;;5041048;28;20193;-74
2021/06/09 12:33:01;;;;;;;10.98;5.82;;;27.50;97.30;;;;;;5036215;28;20206;-74
2021/06/09 12:35:27;;;;;;;16.73;5.93;;;27.80;97.30;;;;;;5035753;28;20666;-74
2021/06/09 12:37:56;;;;;;;13.20;6.00;;;28.20;98.20;;;;;;5038033;28;20817;-73
2021/06/09 12:40:24;;;;;;;10.57;5.25;;;28.30;96.30;;;;;;5039978;28;20205;-74
2021/06/09 12:43:05;;;;;;;11.27;5.63;;;27.80;98.60;;;;;;5041188;28;20216;-74
2021/06/09 12:45:34;;;;;;;9.77;6.03;;;27.90;97.70;;;;;;5037727;28;20189;-74
2021/06/09 12:48:08;;;;;;;10.90;5.72;;;28.10;98.20;;;;;;5041771;28;20205;-74
2021/06/09 12:50:41;;;;;;;12.15;5.72;;;27.90;98.00;;;;;;5042116;28;20209;-74
2021/06/09 12:53:19;;;;;;;11.23;5.68;;;28.30;96.80;;;;;;5044662;28;20270;-73
2021/06/09 12:55:58;;;;;;;8.30;5.57;;;28.10;98.20;;;;;;5057986;28;20303;-74
2021/06/09 12:58:27;;;;;;;7.20;5.40;;;28.20;99.70;;;;;;5044120;28;20227;-75